This is the latest recevied weather packets stored in our database for station/object KF0DL. If no packets are shown the sender has not sent any weather packets the latest 10 day(s).
| Time | Temp. | Humidity | Pressure | Rain* | Wind** | Luminosity | Snow |
|---|---|---|---|---|---|---|---|
| 1777876115 | 10° C | 58% | 1005.4 hPa | 0 mm | - | - | - |
| 1777875802 | 10° C | 58% | 1005.4 hPa | 0 mm | - | - | - |
| 1777875508 | 10° C | 58% | 1005.4 hPa | 0 mm | - | - | - |
| 1777875199 | 10° C | 58% | 1005.3 hPa | 0 mm | - | - | - |
| 1777874908 | 10.56° C | 58% | 1005.3 hPa | 0 mm | - | - | - |
| 1777874614 | 10.56° C | 57% | 1005.3 hPa | 0 mm | - | - | - |
| 1777874303 | 10.56° C | 57% | 1005.2 hPa | 0 mm | - | - | - |
| 1777874010 | 10.56° C | 57% | 1005.2 hPa | 0 mm | - | - | - |
| 1777873713 | 10.56° C | 57% | 1005.2 hPa | 0 mm | - | - | - |
| 1777873399 | 10.56° C | 56% | 1004.8 hPa | 0 mm | - | - | - |
| 1777873108 | 11.11° C | 56% | 1004.8 hPa | 0 mm | - | - | - |
| 1777872815 | 11.11° C | 55% | 1004.8 hPa | 0 mm | - | - | - |
| 1777872506 | 11.11° C | 55% | 1004.8 hPa | 0 mm | - | - | - |
| 1777872212 | 11.67° C | 54% | 1004.5 hPa | 0 mm | - | - | - |
| 1777871901 | 11.67° C | 52% | 1004.5 hPa | 0 mm | - | - | - |
| 1777871609 | 12.22° C | 51% | 1004.5 hPa | 0 mm | - | - | - |
| 1777871318 | 12.78° C | 50% | 1004.8 hPa | 0 mm | - | - | - |
| 1777871005 | 13.33° C | 48% | 1004.8 hPa | 0 mm | - | - | - |
| 1777870709 | 14.44° C | 45% | 1004.8 hPa | 0 mm | - | - | - |
| 1777870417 | 16.67° C | 35% | 1002.3 hPa | 0 mm | - | - | - |
| 1777870105 | 17.22° C | 26% | 1002.3 hPa | 0 mm | - | - | - |
| 1777869812 | 17.22° C | 26% | 1002.3 hPa | 0 mm | - | - | - |
| 1777869506 | 17.22° C | 26% | 1002.2 hPa | 0 mm | - | - | - |
| 1777869213 | 17.22° C | 26% | 1002.2 hPa | 0 mm | - | - | - |
| 1777868899 | 17.22° C | 26% | 1002.3 hPa | 0 mm | - | - | - |
* Rain latest hour (hover to see other rain measurements)
** Current wind speed in m/s (hover to see current wind gust speed)